Time;durP1;ratioP1;P1;durP2;ratioP2;P2;SDS_P1;SDS_P2;PMS_P1;PMS_P2;Temp;Humidity;BMP_temperature;BMP_pressure;BME280_temperature;BME280_humidity;BME280_pressure;Samples;Min_cycle;Max_cycle;Signal;HPM_P1;HPM_P2
2021/08/10 00:00:21;;;;;;;4.12;3.00;;;;;;;17.58;100.00;100656.23;1738674;82;21752;-91
2021/08/10 00:02:48;;;;;;;3.77;2.65;;;;;;;17.57;100.00;100656.54;1738186;82;21048;-88
2021/08/10 00:05:14;;;;;;;3.47;2.12;;;;;;;17.55;100.00;100658.80;1731256;82;22195;-87
2021/08/10 00:07:41;;;;;;;4.80;2.37;;;;;;;17.53;100.00;100665.21;1738230;82;21033;-87
2021/08/10 00:10:08;;;;;;;3.67;2.27;;;;;;;17.52;100.00;100667.74;1709834;82;21495;-88
2021/08/10 00:12:35;;;;;;;4.65;2.62;;;;;;;17.49;100.00;100662.30;1738179;82;21592;-87
2021/08/10 00:15:03;;;;;;;5.67;2.72;;;;;;;17.48;100.00;100666.20;1730799;82;21267;-91
2021/08/10 00:17:31;;;;;;;3.42;1.75;;;;;;;17.49;100.00;100667.01;1737770;82;21136;-91
2021/08/10 00:19:57;;;;;;;3.70;2.55;;;;;;;17.47;100.00;100667.32;1738111;82;21092;-91
2021/08/10 00:22:25;;;;;;;2.92;2.02;;;;;;;17.45;100.00;100672.34;1737827;82;21090;-89
2021/08/10 00:24:53;;;;;;;3.65;2.42;;;;;;;17.43;100.00;100671.84;1718481;82;21034;-87
2021/08/10 00:27:19;;;;;;;4.20;2.92;;;;;;;17.41;100.00;100668.61;1708368;83;21477;-90
2021/08/10 00:29:45;;;;;;;4.83;2.70;;;;;;;17.41;100.00;100664.47;1710712;84;21152;-87
2021/08/10 00:32:12;;;;;;;3.47;2.33;;;;;;;17.41;100.00;100667.23;1708307;84;20911;-87
2021/08/10 00:34:39;;;;;;;6.65;2.15;;;;;;;17.41;100.00;100663.09;1709702;82;21069;-91
2021/08/10 00:37:07;;;;;;;3.58;2.47;;;;;;;17.43;100.00;100663.56;1708201;84;21067;-91
2021/08/10 00:39:36;;;;;;;4.75;2.92;;;;;;;17.45;100.00;100664.63;1709427;84;21065;-88
2021/08/10 00:42:03;;;;;;;3.98;2.67;;;;;;;17.46;100.00;100665.70;1708436;84;20957;-88
2021/08/10 00:44:31;;;;;;;6.33;3.20;;;;;;;17.45;100.00;100657.16;1709803;82;22080;-89
2021/08/10 00:46:58;;;;;;;5.72;3.15;;;;;;;17.46;100.00;100653.27;1679961;84;21563;-91
2021/08/10 00:49:25;;;;;;;5.08;3.02;;;;;;;17.47;100.00;100654.08;1707987;84;21092;-88
2021/08/10 00:51:52;;;;;;;6.55;3.33;;;;;;;17.46;100.00;100660.18;1680712;84;21120;-88
2021/08/10 00:54:19;;;;;;;3.40;2.50;;;;;;;17.47;100.00;100660.41;1709316;82;21083;-87
2021/08/10 00:56:48;;;;;;;6.50;3.00;;;;;;;17.47;100.00;100652.70;1715904;82;21018;-88
2021/08/10 00:59:17;;;;;;;5.03;3.27;;;;;;;17.47;100.00;100652.70;1707997;84;21053;-88
2021/08/10 01:01:45;;;;;;;4.45;2.42;;;;;;;17.46;100.00;100651.05;1716243;82;21053;-87
2021/08/10 01:04:12;;;;;;;7.35;3.15;;;;;;;17.43;100.00;100645.60;1722994;81;21064;-91
2021/08/10 01:07:09;;;;;;;7.45;3.70;;;;;;;17.43;100.00;100650.32;1724640;83;21410;-88
2021/08/10 01:09:58;;;;;;;5.87;3.00;;;;;;;17.40;100.00;100642.11;1703204;84;21028;-87
2021/08/10 01:12:34;;;;;;;4.00;2.95;;;;;;;17.39;100.00;100633.59;1731968;82;21052;-92
2021/08/10 01:15:17;;;;;;;5.65;3.30;;;;;;;17.38;100.00;100642.98;1710581;82;21063;-88
2021/08/10 01:18:14;;;;;;;3.55;2.65;;;;;;;17.37;100.00;100640.00;1719990;83;21056;-87
2021/08/10 01:21:21;;;;;;;5.85;3.08;;;;;;;17.35;100.00;100642.26;1712193;83;21112;-91
2021/08/10 01:24:03;;;;;;;4.53;3.00;;;;;;;17.31;100.00;100638.50;1711367;82;21057;-88
2021/08/10 01:26:56;;;;;;;5.53;3.22;;;;;;;17.27;100.00;100641.67;1735960;82;21040;-93
2021/08/10 01:29:59;;;;;;;6.40;2.67;;;;;;;17.25;100.00;100639.22;1741534;82;21107;-91
2021/08/10 01:32:27;;;;;;;;;;;;;;;17.22;100.00;100644.58;1720144;82;21613;-91
2021/08/10 01:34:54;;;;;;;4.60;2.92;;;;;;;17.18;100.00;100639.70;1733862;82;20239;-92
2021/08/10 01:37:26;;;;;;;6.78;2.83;;;;;;;17.13;100.00;100643.96;1716312;82;21068;-91
2021/08/10 01:39:57;;;;;;;4.92;3.22;;;;;;;17.13;100.00;100652.81;1711758;83;21076;-91
2021/08/10 01:42:25;;;;;;;4.17;2.92;;;;;;;17.09;100.00;100641.61;1711221;83;21118;-88
2021/08/10 01:44:54;;;;;;;4.40;2.92;;;;;;;17.07;100.00;100636.16;1725701;82;21084;-88
2021/08/10 01:47:22;;;;;;;4.22;2.65;;;;;;;17.04;100.00;100633.47;1740907;82;21104;-91
2021/08/10 01:49:49;;;;;;;7.78;3.62;;;;;;;17.03;100.00;100633.78;1740990;82;21104;-92
2021/08/10 01:52:19;;;;;;;5.45;3.62;;;;;;;17.03;100.00;100630.45;1713908;82;21518;-91
2021/08/10 01:54:47;;;;;;;4.53;3.70;;;;;;;17.02;100.00;100643.20;1733918;82;21017;-88
2021/08/10 01:57:17;;;;;;;4.65;3.00;;;;;;;16.97;100.00;100647.72;1740857;82;21124;-87
2021/08/10 01:59:54;;;;;;;5.17;3.22;;;;;;;16.93;100.00;100645.34;1762142;81;21083;-87
2021/08/10 02:02:21;;;;;;;5.87;3.20;;;;;;;16.92;100.00;100647.05;1732383;82;21072;-92
2021/08/10 02:04:50;;;;;;;5.47;3.47;;;;;;;16.91;100.00;100650.38;1678047;84;20987;-91
2021/08/10 02:07:18;;;;;;;5.05;3.05;;;;;;;16.91;100.00;100648.17;1702364;84;21035;-88
2021/08/10 02:09:45;;;;;;;4.95;2.87;;;;;;;16.91;100.00;100646.78;1682049;84;21035;-87
2021/08/10 02:12:12;;;;;;;4.75;3.67;;;;;;;16.90;100.00;100645.98;1702355;84;21356;-87
2021/08/10 02:14:40;;;;;;;4.60;3.10;;;;;;;16.89;100.00;100650.42;1666287;85;21046;-87
2021/08/10 02:17:08;;;;;;;4.75;3.15;;;;;;;16.87;100.00;100648.57;1669732;84;21056;-88
2021/08/10 02:19:38;;;;;;;4.42;3.27;;;;;;;16.84;100.00;100649.19;1647358;84;21557;-91
2021/08/10 02:22:08;;;;;;;4.62;3.00;;;;;;;16.83;100.00;100649.75;1697719;84;21049;-91
2021/08/10 02:24:50;;;;;;;5.08;2.87;;;;;;;16.81;100.00;100645.69;1699753;83;21137;-87
2021/08/10 02:27:48;;;;;;;4.37;3.30;;;;;;;16.80;100.00;100649.59;1697579;84;21061;-87
2021/08/10 02:30:21;;;;;;;8.35;3.72;;;;;;;16.77;100.00;100651.00;1697942;84;21101;-87
2021/08/10 02:32:48;;;;;;;5.50;3.47;;;;;;;16.77;100.00;100646.30;1699001;83;21033;-91
2021/08/10 02:35:21;;;;;;;4.90;2.87;;;;;;;16.77;100.00;100638.58;1727522;81;20964;-88
2021/08/10 02:37:48;;;;;;;4.37;3.12;;;;;;;16.76;100.00;100641.08;1726629;83;21021;-91
2021/08/10 02:40:19;;;;;;;5.80;3.30;;;;;;;16.75;100.00;100641.65;1729351;82;20997;-91
2021/08/10 02:42:52;;;;;;;4.65;3.33;;;;;;;16.74;100.00;100645.55;1739031;82;21116;-91
2021/08/10 02:45:19;;;;;;;5.47;3.37;;;;;;;16.73;100.00;100645.28;1731526;82;21567;-87
2021/08/10 02:47:54;;;;;;;4.35;2.83;;;;;;;16.70;100.00;100643.16;1716562;82;21076;-88
2021/08/10 02:50:25;;;;;;;4.50;3.05;;;;;;;16.70;100.00;100642.36;1708182;84;21164;-91
2021/08/10 02:52:52;;;;;;;5.42;3.50;;;;;;;16.69;100.00;100647.06;1708873;84;21060;-91
2021/08/10 02:55:21;;;;;;;5.25;3.45;;;;;;;16.70;100.00;100650.63;1723099;82;21053;-92
2021/08/10 02:57:55;;;;;;;4.30;2.98;;;;;;;16.70;100.00;100647.88;1745294;81;20960;-87
2021/08/10 03:00:22;;;;;;;6.55;3.62;;;;;;;16.71;100.00;100646.16;1708235;82;21068;-87
2021/08/10 03:02:50;;;;;;;5.60;3.35;;;;;;;16.73;100.00;100645.28;1685603;82;21121;-91
2021/08/10 03:05:20;;;;;;;5.60;3.70;;;;;;;16.78;100.00;100648.51;1737894;82;22220;-88
2021/08/10 03:07:59;;;;;;;4.03;3.05;;;;;;;16.83;100.00;100645.61;1709047;82;21063;-90
2021/08/10 03:10:27;;;;;;;5.62;3.33;;;;;;;16.90;100.00;100650.69;1737659;82;21092;-92
2021/08/10 03:12:56;;;;;;;5.42;3.92;;;;;;;16.98;100.00;100652.67;1737964;82;21507;-91
2021/08/10 03:15:26;;;;;;;5.28;3.52;;;;;;;17.04;100.00;100644.52;1737548;82;22694;-88
2021/08/10 03:17:56;;;;;;;6.90;3.60;;;;;;;17.08;100.00;100646.86;1737767;82;21616;-91
2021/08/10 03:20:24;;;;;;;5.17;3.47;;;;;;;17.15;100.00;100645.03;1710097;82;21120;-91
2021/08/10 03:22:53;;;;;;;5.53;3.60;;;;;;;17.25;100.00;100652.22;1711098;82;21061;-91
2021/08/10 03:25:20;;;;;;;6.83;4.22;;;;;;;17.39;100.00;100645.45;1738271;82;21060;-87
2021/08/10 03:27:49;;;;;;;10.40;4.05;;;;;;;17.57;100.00;100638.01;1745417;81;21088;-91
2021/08/10 03:30:17;;;;;;;4.58;3.45;;;;;;;17.79;100.00;100634.88;1737596;82;21104;-88
2021/08/10 03:32:46;;;;;;;6.25;3.47;;;;;;;18.04;100.00;100634.68;1736854;82;21045;-92
2021/08/10 03:35:14;;;;;;;8.55;3.77;;;;;;;18.24;100.00;100628.48;1718647;82;21060;-88
2021/08/10 03:37:41;;;;;;;5.22;4.10;;;;;;;18.47;100.00;100637.42;1710486;82;21096;-93
2021/08/10 03:40:09;;;;;;;4.90;3.62;;;;;;;18.64;100.00;100638.52;1680105;84;21370;-92
2021/08/10 03:42:35;;;;;;;4.37;3.22;;;;;;;18.84;100.00;100632.87;1708942;82;21033;-95
2021/08/10 03:45:06;;;;;;;5.55;4.00;;;;;;;19.01;100.00;100634.19;1703042;84;21428;-89
2021/08/10 03:47:33;;;;;;;5.37;3.77;;;;;;;19.17;100.00;100637.23;1708750;82;21590;-92
2021/08/10 03:50:00;;;;;;;7.35;3.42;;;;;;;19.34;100.00;100630.80;1671411;84;21029;-92
2021/08/10 03:52:29;;;;;;;6.53;3.77;;;;;;;19.49;100.00;100632.99;1712893;81;21069;-89
2021/08/10 03:54:57;;;;;;;4.45;3.30;;;;;;;19.62;100.00;100633.89;1689442;84;21105;-93
2021/08/10 03:57:25;;;;;;;5.58;3.62;;;;;;;19.74;100.00;100639.55;1713921;83;21068;-93
2021/08/10 03:59:55;;;;;;;5.28;4.10;;;;;;;19.86;100.00;100632.47;1731882;82;21092;-93
2021/08/10 04:02:22;;;;;;;5.80;3.70;;;;;;;19.98;100.00;100631.15;1719768;82;21117;-93
2021/08/10 04:04:52;;;;;;;4.67;3.20;;;;;;;20.08;100.00;100639.05;1701085;83;21068;-88
2021/08/10 04:07:19;;;;;;;5.28;3.60;;;;;;;20.18;100.00;100634.48;1743866;81;21723;-89
2021/08/10 04:09:46;;;;;;;5.87;4.15;;;;;;;20.28;100.00;100636.61;1712952;83;21105;-89
2021/08/10 04:12:16;;;;;;;7.85;3.70;;;;;;;20.38;100.00;100636.18;1726398;82;21096;-89
2021/08/10 04:14:45;;;;;;;5.42;3.77;;;;;;;20.46;100.00;100629.72;1721992;82;21053;-89
2021/08/10 04:17:15;;;;;;;7.00;3.83;;;;;;;20.58;100.00;100630.37;1745771;82;20982;-89
2021/08/10 04:19:45;;;;;;;6.50;3.75;;;;;;;20.67;100.00;100628.30;1686048;83;21057;-89
2021/08/10 04:22:13;;;;;;;5.17;3.60;;;;;;;20.75;100.00;100627.99;1737818;82;21080;-89
2021/08/10 04:24:40;;;;;;;5.78;3.87;;;;;;;20.82;100.00;100622.10;1718795;82;21013;-89
2021/08/10 04:27:07;;;;;;;6.30;3.45;;;;;;;20.91;100.00;100632.29;1743207;81;21080;-89
2021/08/10 04:29:35;;;;;;;8.00;3.85;;;;;;;20.97;100.00;100626.17;1768327;81;21025;-88
2021/08/10 04:32:02;;;;;;;4.47;3.25;;;;;;;21.03;100.00;100628.95;1724198;81;21536;-89
2021/08/10 04:34:29;;;;;;;5.75;3.27;;;;;;;21.12;100.00;100637.77;1680012;84;21061;-89
2021/08/10 04:36:55;;;;;;;4.97;3.37;;;;;;;21.19;100.00;100632.42;1738611;81;21045;-89
2021/08/10 04:39:26;;;;;;;5.33;3.52;;;;;;;21.27;100.00;100639.85;1738178;82;21035;-89
2021/08/10 04:41:53;;;;;;;4.95;3.45;;;;;;;21.34;100.00;100635.92;1723904;82;21024;-88
2021/08/10 04:44:21;;;;;;;5.40;3.77;;;;;;;21.43;100.00;100633.84;1726900;82;21091;-93
2021/08/10 04:46:50;;;;;;;4.85;3.67;;;;;;;21.53;100.00;100631.75;1709421;81;21099;-89
2021/08/10 04:49:16;;;;;;;5.75;3.83;;;;;;;21.62;100.00;100638.02;1712655;83;21083;-93
2021/08/10 04:51:44;;;;;;;7.58;3.40;;;;;;;21.69;100.00;100634.06;1682711;84;21073;-89
2021/08/10 04:54:15;;;;;;;5.87;3.50;;;;;;;21.75;100.00;100629.86;1698771;84;21085;-92
2021/08/10 04:56:41;;;;;;;4.65;2.87;;;;;;;21.82;100.00;100624.52;1721259;83;21365;-92
2021/08/10 04:59:07;;;;;;;6.00;3.60;;;;;;;21.93;100.00;100630.98;1739364;81;21061;-92
2021/08/10 05:01:38;;;;;;;6.40;3.40;;;;;;;22.03;100.00;100634.66;1727875;82;21592;-88
2021/08/10 05:04:04;;;;;;;4.70;3.37;;;;;;;22.15;100.00;100632.42;1718503;83;20977;-92
2021/08/10 05:06:31;;;;;;;6.08;3.92;;;;;;;22.25;100.00;100634.14;1724388;83;21039;-88
2021/08/10 05:08:59;;;;;;;5.67;3.58;;;;;;;22.36;100.00;100635.05;1724648;83;21047;-88
2021/08/10 05:11:26;;;;;;;5.08;3.35;;;;;;;22.49;100.00;100638.00;1724385;82;21079;-92
2021/08/10 05:13:53;;;;;;;5.33;3.72;;;;;;;22.59;100.00;100643.05;1724898;83;21031;-93
2021/08/10 05:16:22;;;;;;;3.75;3.17;;;;;;;22.69;100.00;100641.72;1741803;81;21020;-89
2021/08/10 05:18:50;;;;;;;9.35;3.45;;;;;;;22.78;100.00;100642.36;1754413;81;21039;-88
2021/08/10 05:21:17;;;;;;;5.20;3.25;;;;;;;22.85;100.00;100639.77;1756141;81;21087;-88
2021/08/10 05:23:46;;;;;;;4.50;3.20;;;;;;;22.98;100.00;100640.52;1750209;78;21472;-89
2021/08/10 05:26:13;;;;;;;4.40;3.47;;;;;;;23.09;100.00;100647.16;1727753;81;21051;-89
2021/08/10 05:28:42;;;;;;;5.10;3.40;;;;;;;23.16;100.00;100636.19;1724390;83;21528;-88
2021/08/10 05:31:09;;;;;;;4.55;3.47;;;;;;;23.24;100.00;100636.38;1734514;81;21060;-88
2021/08/10 05:33:36;;;;;;;4.15;3.08;;;;;;;23.29;100.00;100630.52;1725043;83;21091;-88
2021/08/10 05:36:04;;;;;;;4.40;3.42;;;;;;;23.35;100.00;100641.64;1695323;84;21043;-88
2021/08/10 05:38:31;;;;;;;4.30;3.50;;;;;;;23.39;100.00;100639.16;1695462;84;21114;-88
2021/08/10 05:40:59;;;;;;;3.35;3.05;;;;;;;23.48;100.00;100641.73;1695263;84;21243;-88
2021/08/10 05:43:27;;;;;;;4.58;3.55;;;;;;;23.60;100.00;100643.61;1720535;83;21051;-89
2021/08/10 05:45:54;;;;;;;5.25;3.40;;;;;;;23.68;100.00;100636.22;1724013;83;21040;-89
2021/08/10 05:48:23;;;;;;;4.83;2.98;;;;;;;23.76;100.00;100630.48;1729089;82;21041;-88
2021/08/10 05:50:51;;;;;;;4.00;3.27;;;;;;;23.87;100.00;100629.30;1707731;82;21561;-88
2021/08/10 05:53:18;;;;;;;3.80;2.90;;;;;;;23.99;99.60;100623.59;1700202;83;21025;-88
2021/08/10 05:55:45;;;;;;;4.92;3.08;;;;;;;24.08;98.28;100627.55;1724947;81;21056;-91
2021/08/10 05:58:12;;;;;;;4.78;3.40;;;;;;;24.19;98.08;100630.58;1743371;81;21098;-88
2021/08/10 06:00:38;;;;;;;4.97;3.20;;;;;;;24.32;97.73;100627.84;1722202;81;21087;-88
2021/08/10 06:03:07;;;;;;;4.90;3.40;;;;;;;24.43;96.45;100623.28;1748152;81;21045;-91
2021/08/10 06:05:34;;;;;;;3.20;2.77;;;;;;;24.53;95.30;100628.06;1759552;81;21031;-91
2021/08/10 06:08:02;;;;;;;3.87;3.20;;;;;;;24.60;94.61;100629.00;1730423;82;21011;-91
2021/08/10 06:10:32;;;;;;;5.08;3.50;;;;;;;24.67;93.64;100625.53;1703114;84;21040;-91
2021/08/10 06:13:01;;;;;;;3.02;2.72;;;;;;;24.77;93.43;100622.72;1701444;82;21051;-88
2021/08/10 06:15:27;;;;;;;4.70;3.15;;;;;;;24.87;93.83;100628.48;1731968;82;21052;-90
2021/08/10 06:17:54;;;;;;;4.22;3.20;;;;;;;24.97;93.67;100626.26;1752770;81;21035;-89
2021/08/10 06:20:21;;;;;;;3.25;2.92;;;;;;;25.05;93.61;100616.83;1762996;81;21008;-88
2021/08/10 06:22:48;;;;;;;4.25;3.40;;;;;;;25.17;92.94;100618.03;1762270;81;21071;-90
2021/08/10 06:25:15;;;;;;;3.55;2.58;;;;;;;25.27;92.25;100620.79;1762205;81;21078;-89
2021/08/10 06:27:44;;;;;;;3.58;2.95;;;;;;;25.36;91.04;100617.74;1748255;81;21103;-88
2021/08/10 06:30:13;;;;;;;4.87;3.25;;;;;;;25.42;90.82;100619.02;1741252;81;22056;-90
2021/08/10 06:32:40;;;;;;;3.65;2.80;;;;;;;25.52;89.69;100623.39;1700693;84;21431;-87
2021/08/10 06:35:09;;;;;;;4.05;3.35;;;;;;;25.61;89.74;100613.31;1701023;84;21119;-91
2021/08/10 06:37:35;;;;;;;4.08;2.77;;;;;;;25.71;88.97;100607.05;1743771;81;21031;-87
2021/08/10 06:40:02;;;;;;;4.33;3.15;;;;;;;25.84;88.70;100606.82;1762428;81;21036;-88
2021/08/10 06:42:29;;;;;;;4.30;3.27;;;;;;;25.94;88.95;100599.21;1762604;81;21085;-88
2021/08/10 06:45:00;;;;;;;6.28;3.55;;;;;;;25.99;88.74;100593.28;1761101;81;21008;-91
2021/08/10 06:47:27;;;;;;;4.78;3.00;;;;;;;26.03;89.00;100596.91;1755409;81;21084;-87
2021/08/10 06:49:54;;;;;;;4.97;3.12;;;;;;;26.11;88.45;100596.39;1762807;81;21036;-87
2021/08/10 06:52:21;;;;;;;5.40;3.37;;;;;;;26.15;88.12;100589.66;1762011;81;21079;-90
2021/08/10 06:54:48;;;;;;;3.15;2.77;;;;;;;26.22;87.77;100590.94;1762171;81;21063;-91
2021/08/10 06:57:14;;;;;;;4.47;3.47;;;;;;;26.30;86.93;100591.22;1754894;81;21001;-87
2021/08/10 06:59:41;;;;;;;2.90;2.60;;;;;;;26.38;86.00;100591.50;1738748;81;21510;-91
2021/08/10 07:02:09;;;;;;;3.25;2.92;;;;;;;26.39;85.70;100590.33;1701081;84;21088;-88
2021/08/10 07:04:36;;;;;;;6.03;3.27;;;;;;;26.44;85.20;100584.38;1728046;82;21104;-90
2021/08/10 07:07:04;;;;;;;4.53;2.98;;;;;;;26.53;85.02;100586.31;1719279;82;21060;-87
2021/08/10 07:09:33;;;;;;;4.17;3.30;;;;;;;26.63;84.39;100585.38;1708922;82;21088;-90
2021/08/10 07:12:01;;;;;;;3.00;2.67;;;;;;;26.77;83.87;100589.12;1679574;84;21543;-88
2021/08/10 07:14:29;;;;;;;4.15;3.10;;;;;;;26.88;83.76;100594.84;1708432;84;21611;-88
2021/08/10 07:16:58;;;;;;;4.72;3.12;;;;;;;27.02;82.87;100579.52;1707864;84;21088;-87
2021/08/10 07:19:24;;;;;;;4.03;3.02;;;;;;;27.19;81.87;100588.49;1710233;82;21033;-88
2021/08/10 07:21:52;;;;;;;3.55;2.40;;;;;;;27.28;81.32;100574.94;1709393;84;21060;-87
2021/08/10 07:24:22;;;;;;;5.03;2.95;;;;;;;27.36;80.57;100570.97;1708181;84;21096;-89
2021/08/10 07:26:49;;;;;;;4.30;2.87;;;;;;;27.43;80.43;100576.64;1708502;84;21049;-90
2021/08/10 07:29:16;;;;;;;4.05;2.80;;;;;;;27.50;79.16;100573.65;1708475;84;22255;-87
2021/08/10 07:31:43;;;;;;;3.92;3.08;;;;;;;27.44;79.81;100576.83;1708842;84;21397;-90
2021/08/10 07:34:12;;;;;;;4.17;2.98;;;;;;;27.46;79.72;100570.84;1708278;84;21032;-91
2021/08/10 07:36:41;;;;;;;3.62;2.72;;;;;;;27.55;79.17;100576.11;1708328;84;21127;-87
2021/08/10 07:39:08;;;;;;;5.95;3.55;;;;;;;27.61;78.88;100578.73;1708243;84;21087;-90
2021/08/10 07:41:35;;;;;;;3.98;2.85;;;;;;;27.65;79.20;100571.15;1708599;84;20937;-91
2021/08/10 07:44:04;;;;;;;5.25;3.08;;;;;;;27.75;79.23;100569.59;1708869;84;21679;-89
2021/08/10 07:46:33;;;;;;;3.42;2.72;;;;;;;27.88;79.24;100568.87;1708094;84;21099;-90
2021/08/10 07:48:59;;;;;;;5.53;3.20;;;;;;;27.97;78.36;100569.92;1708503;84;21076;-88
2021/08/10 07:51:26;;;;;;;3.30;2.77;;;;;;;28.04;77.74;100566.31;1708217;84;20980;-88
2021/08/10 07:53:52;;;;;;;4.08;2.90;;;;;;;28.15;78.17;100569.17;1708594;84;21049;-87
2021/08/10 07:56:19;;;;;;;5.62;3.27;;;;;;;28.28;76.37;100566.98;1708298;84;21053;-87
2021/08/10 07:58:45;;;;;;;3.72;3.05;;;;;;;28.40;75.31;100567.83;1708195;83;21045;-90
2021/08/10 08:01:12;;;;;;;5.28;3.40;;;;;;;28.49;76.43;100560.64;1708433;84;21060;-91
2021/08/10 08:03:39;;;;;;;3.08;2.67;;;;;;;28.63;75.84;100565.47;1708517;84;21085;-88
2021/08/10 08:06:06;;;;;;;3.60;2.70;;;;;;;28.75;75.54;100564.27;1679369;84;21160;-90
2021/08/10 08:08:40;;;;;;;4.85;3.02;;;;;;;28.83;74.94;100565.08;1715398;83;21474;-90
2021/08/10 08:11:08;;;;;;;3.62;2.80;;;;;;;28.94;74.81;100560.27;1703794;84;21125;-87
2021/08/10 08:13:35;;;;;;;4.08;3.40;;;;;;;29.07;73.70;100561.48;1689988;84;21574;-88
2021/08/10 08:16:04;;;;;;;3.02;2.77;;;;;;;29.21;73.12;100562.69;1691892;83;21483;-87
2021/08/10 08:18:30;;;;;;;5.25;2.90;;;;;;;29.27;72.53;100563.87;1703388;84;21068;-90
2021/08/10 08:20:57;;;;;;;3.60;3.05;;;;;;;29.30;72.44;100565.28;1715550;83;21080;-90
2021/08/10 08:23:26;;;;;;;3.20;2.87;;;;;;;29.32;72.17;100563.45;1715234;83;20993;-87
2021/08/10 08:25:53;;;;;;;3.27;2.40;;;;;;;29.35;72.10;100565.45;1704383;84;21053;-87
2021/08/10 08:28:19;;;;;;;4.80;2.60;;;;;;;29.40;72.12;100565.03;1690754;83;21044;-87
2021/08/10 08:30:46;;;;;;;5.75;3.08;;;;;;;29.50;71.96;100571.84;1715351;83;21009;-90
2021/08/10 08:33:14;;;;;;;4.40;2.95;;;;;;;29.66;71.63;100564.41;1703571;84;21116;-89
2021/08/10 08:35:41;;;;;;;3.08;2.75;;;;;;;29.83;71.14;100564.15;1716074;83;21052;-88
2021/08/10 08:38:08;;;;;;;2.92;2.50;;;;;;;29.95;70.08;100573.55;1690847;83;21496;-90
2021/08/10 08:40:37;;;;;;;3.35;2.85;;;;;;;29.96;69.82;100571.72;1703496;84;21060;-90
2021/08/10 08:43:05;;;;;;;2.83;2.55;;;;;;;30.05;70.94;100576.13;1715393;83;21085;-90
2021/08/10 08:45:33;;;;;;;3.77;2.52;;;;;;;30.04;70.33;100567.46;1717021;83;21076;-88
2021/08/10 08:48:02;;;;;;;3.90;2.30;;;;;;;30.06;71.29;100570.06;1703272;84;21025;-87
2021/08/10 08:50:31;;;;;;;4.25;2.67;;;;;;;30.21;69.48;100566.56;1691059;83;21310;-87
2021/08/10 08:52:58;;;;;;;6.97;2.85;;;;;;;30.33;68.36;100567.52;1691476;83;21044;-87
2021/08/10 08:55:25;;;;;;;2.75;2.50;;;;;;;30.36;67.75;100567.30;1679740;84;21516;-88
2021/08/10 08:57:51;;;;;;;3.52;2.55;;;;;;;30.45;67.24;100561.22;1690988;83;21945;-88
2021/08/10 09:00:18;;;;;;;3.15;2.58;;;;;;;30.57;64.92;100567.78;1691042;83;21091;-90
2021/08/10 09:02:46;;;;;;;4.55;2.30;;;;;;;30.60;65.03;100557.08;1703459;84;21125;-87
2021/08/10 09:05:15;;;;;;;4.10;2.50;;;;;;;30.64;66.77;100556.45;1719318;82;21362;-91
2021/08/10 09:07:43;;;;;;;3.95;2.30;;;;;;;30.73;65.20;100553.94;1730439;82;21052;-88
2021/08/10 09:10:15;;;;;;;2.75;2.20;;;;;;;30.89;65.13;100550.64;1744437;81;21055;-87
2021/08/10 09:12:48;;;;;;;4.22;2.37;;;;;;;31.03;64.93;100549.69;1677159;84;21060;-90
2021/08/10 09:15:30;;;;;;;;;;;;;;;31.14;63.70;100548.19;1734585;82;21091;-87
2021/08/10 09:18:11;;;;;;;3.10;2.55;;;;;;;31.24;63.25;100542.42;1718693;82;20245;-87
2021/08/10 09:20:40;;;;;;;3.05;2.10;;;;;;;31.25;64.03;100546.84;1700856;83;20981;-86
2021/08/10 09:23:09;;;;;;;4.08;2.70;;;;;;;31.18;63.46;100537.06;1729164;82;21049;-89
2021/08/10 09:25:38;;;;;;;3.52;2.72;;;;;;;31.11;63.69;100536.30;1710018;83;21076;-87
2021/08/10 09:28:08;;;;;;;2.40;2.20;;;;;;;31.01;63.99;100539.42;1710729;83;21132;-87
2021/08/10 09:30:35;;;;;;;5.17;2.75;;;;;;;30.92;63.89;100534.89;1711553;83;21067;-87
2021/08/10 09:33:05;;;;;;;3.80;2.85;;;;;;;30.80;65.45;100535.55;1731778;82;21002;-89
2021/08/10 09:35:36;;;;;;;2.40;2.10;;;;;;;30.80;64.90;100530.53;1700910;84;21526;-89
2021/08/10 09:38:16;;;;;;;2.80;2.50;;;;;;;30.81;64.91;100530.12;1731839;82;21119;-89
2021/08/10 09:40:47;;;;;;;5.80;2.80;;;;;;;30.79;64.43;100528.94;1702021;84;20909;-90
2021/08/10 09:43:35;;;;;;;2.92;2.45;;;;;;;30.65;64.41;100536.89;1731958;82;21051;-89
2021/08/10 09:46:20;;;;;;;4.45;2.50;;;;;;;30.56;65.23;100518.23;1719021;83;21054;-88
2021/08/10 09:48:55;;;;;;;3.12;2.72;;;;;;;30.56;64.92;100523.88;1720030;83;21057;-89
2021/08/10 09:51:25;;;;;;;3.10;2.70;;;;;;;30.51;65.11;100531.36;1720626;83;21053;-87
2021/08/10 09:54:00;;;;;;;3.58;2.40;;;;;;;30.46;64.49;100525.55;1720079;83;21045;-90
2021/08/10 09:56:52;;;;;;;3.15;2.50;;;;;;;30.38;65.00;100518.37;1720080;83;21053;-89
2021/08/10 09:59:27;;;;;;;3.08;2.20;;;;;;;30.36;65.07;100517.37;1719960;83;20969;-89
2021/08/10 10:01:58;;;;;;;3.87;3.12;;;;;;;30.35;64.87;100517.19;1708517;83;21036;-89
2021/08/10 10:04:30;;;;;;;2.62;2.40;;;;;;;30.34;65.80;100514.19;1711193;83;21057;-89
2021/08/10 10:07:11;;;;;;;2.83;2.52;;;;;;;30.39;65.16;100516.56;1699280;83;21061;-87
2021/08/10 10:09:42;;;;;;;3.87;2.20;;;;;;;30.49;65.88;100518.28;1698019;84;21109;-87
2021/08/10 10:12:09;;;;;;;3.47;2.80;;;;;;;30.54;64.24;100503.74;1670121;84;21543;-89
2021/08/10 10:14:39;;;;;;;5.25;2.50;;;;;;;30.53;64.04;100510.61;1670634;84;21121;-89
2021/08/10 10:17:06;;;;;;;2.55;2.17;;;;;;;30.52;64.50;100504.17;1670383;84;21104;-88
2021/08/10 10:19:39;;;;;;;4.05;2.22;;;;;;;30.56;63.81;100494.27;1699064;84;21108;-86
2021/08/10 10:22:17;;;;;;;2.70;2.33;;;;;;;30.60;65.45;100499.28;1698201;84;21037;-90
2021/08/10 10:24:54;;;;;;;6.55;2.15;;;;;;;30.74;65.64;100499.16;1716134;83;21044;-89
2021/08/10 10:27:21;;;;;;;4.87;2.42;;;;;;;30.89;64.72;100499.06;1707248;84;21005;-86
2021/08/10 10:29:54;;;;;;;4.78;2.85;;;;;;;31.01;63.60;100498.51;1709075;83;21065;-86
2021/08/10 10:32:21;;;;;;;3.20;2.72;;;;;;;31.11;63.26;100494.80;1708370;84;21120;-87
2021/08/10 10:34:48;;;;;;;2.85;2.40;;;;;;;31.19;62.77;100492.70;1716014;82;21072;-87
2021/08/10 10:37:26;;;;;;;3.20;2.05;;;;;;;31.20;62.62;100496.49;1708097;84;21108;-88
2021/08/10 10:40:02;;;;;;;6.58;2.50;;;;;;;31.24;63.55;100489.41;1709483;83;21128;-90
2021/08/10 10:42:29;;;;;;;2.70;2.20;;;;;;;31.35;63.20;100485.05;1708205;84;21068;-90
2021/08/10 10:45:01;;;;;;;3.00;2.52;;;;;;;31.53;63.20;100483.44;1708334;84;21120;-87
2021/08/10 10:47:34;;;;;;;4.08;2.90;;;;;;;31.69;61.98;100487.87;1708079;84;21678;-90
2021/08/10 10:50:05;;;;;;;4.58;2.92;;;;;;;31.76;60.50;100479.31;1708978;84;21077;-87
2021/08/10 10:52:34;;;;;;;3.02;2.33;;;;;;;31.73;60.50;100487.82;1708205;84;21033;-87
2021/08/10 10:55:04;;;;;;;3.42;2.52;;;;;;;31.71;61.64;100484.82;1708205;84;21072;-86
2021/08/10 10:57:35;;;;;;;5.12;3.40;;;;;;;31.77;59.06;100478.08;1708211;84;21490;-87
2021/08/10 11:00:12;;;;;;;;;;;;;;;31.79;58.84;100472.02;1711110;84;21070;-89
2021/08/10 11:02:38;;;;;;;2.35;2.12;;;;;;;31.78;58.83;100477.49;1678617;84;20225;-86
2021/08/10 11:05:17;;;;;;;3.27;2.27;;;;;;;31.84;59.07;100472.95;1708552;84;22117;-90
2021/08/10 11:07:47;;;;;;;2.50;2.30;;;;;;;31.94;59.01;100483.33;1731437;82;21012;-89
2021/08/10 11:10:39;;;;;;;2.30;2.00;;;;;;;32.05;58.39;100477.54;1701713;84;21048;-89
2021/08/10 11:13:20;;;;;;;2.73;2.30;;;;;;;31.98;58.29;100477.64;1738363;81;21030;-86
2021/08/10 11:15:55;;;;;;;4.97;2.70;;;;;;;31.97;57.72;100483.09;1685484;83;21051;-88
2021/08/10 11:18:23;;;;;;;5.65;2.60;;;;;;;32.07;54.87;100469.41;1750956;81;20981;-87
2021/08/10 11:21:04;;;;;;;3.83;2.10;;;;;;;32.00;54.49;100471.75;1754436;80;20979;-87
2021/08/10 11:23:33;;;;;;;4.17;2.45;;;;;;;31.84;55.64;100470.13;1732357;82;22708;-87
2021/08/10 11:26:05;;;;;;;3.80;2.40;;;;;;;31.92;55.66;100463.96;1732010;81;21048;-86
2021/08/10 11:28:51;;;;;;;3.58;2.20;;;;;;;32.14;54.30;100463.03;1733731;81;21048;-87
2021/08/10 11:31:42;;;;;;;3.02;2.40;;;;;;;32.33;53.53;100462.94;1741208;81;21067;-87
2021/08/10 11:34:35;;;;;;;2.22;1.87;;;;;;;32.36;53.30;100465.53;1701306;84;21099;-90